Time,TemperatureF,DewpointF,PressureIn,WindDirection,WindDirectionDegrees,WindSpeedMPH,WindSpeedGustMPH,Humidity,HourlyPrecipIn,Conditions,Clouds,dailyrainin,SoftwareType,DateUTC
2013-08-01 00:04:00,75.0,73.8,29.98,South,180,0.0,-999.0,96,-99.99,,,0.00,Acu-Link.com,2013-08-01 04:04:00,
2013-08-01 00:19:00,74.8,73.6,29.98,East,90,0.0,-999.0,96,-99.99,,,0.02,Acu-Link.com,2013-08-01 04:19:00,
2013-08-01 00:34:00,74.8,73.9,29.97,ESE,112,0.0,-999.0,97,-99.99,,,0.07,Acu-Link.com,2013-08-01 04:34:00,
2013-08-01 00:49:00,74.8,73.9,29.96,East,90,0.0,-999.0,97,-99.99,,,0.08,Acu-Link.com,2013-08-01 04:49:00,
2013-08-01 01:05:00,75.2,74.3,29.96,ESE,112,0.0,-999.0,97,-99.99,,,0.09,Acu-Link.com,2013-08-01 05:05:00,
2013-08-01 01:20:00,75.0,74.1,29.95,ESE,112,2.2,-999.0,97,-99.99,,,0.11,Acu-Link.com,2013-08-01 05:20:00,
2013-08-01 01:35:00,75.0,74.1,29.93,East,90,2.2,-999.0,97,-99.99,,,0.11,Acu-Link.com,2013-08-01 05:35:00,
2013-08-01 01:51:00,75.0,74.1,29.93,ESE,112,1.6,-999.0,97,-99.99,,,0.11,Acu-Link.com,2013-08-01 05:51:00,
2013-08-01 02:06:00,75.0,74.1,29.92,ESE,112,0.0,-999.0,97,-99.99,,,0.11,Acu-Link.com,2013-08-01 06:06:00,
2013-08-01 02:21:00,74.7,73.7,29.92,SSE,157,0.0,-999.0,97,-99.99,,,0.11,Acu-Link.com,2013-08-01 06:21:00,
2013-08-01 02:36:00,74.7,73.7,29.92,NE,45,0.0,-999.0,97,-99.99,,,0.11,Acu-Link.com,2013-08-01 06:36:00,
2013-08-01 02:51:00,74.5,73.6,29.91,SE,135,0.0,-999.0,97,-99.99,,,0.11,Acu-Link.com,2013-08-01 06:51:00,
2013-08-01 03:07:00,74.3,73.4,29.91,NE,45,0.0,-999.0,97,-99.99,,,0.11,Acu-Link.com,2013-08-01 07:07:00,
2013-08-01 03:22:00,74.1,73.2,29.90,ESE,112,0.0,-999.0,97,-99.99,,,0.11,Acu-Link.com,2013-08-01 07:22:00,
2013-08-01 03:37:00,73.9,73.0,29.90,NNE,22,0.0,-999.0,97,-99.99,,,0.11,Acu-Link.com,2013-08-01 07:37:00,
2013-08-01 03:53:00,73.9,73.0,29.90,ENE,67,0.0,-999.0,97,-99.99,,,0.11,Acu-Link.com,2013-08-01 07:53:00,
2013-08-01 04:08:00,74.1,73.5,29.89,SSE,157,0.0,-999.0,98,-99.99,,,0.11,Acu-Link.com,2013-08-01 08:08:00,
2013-08-01 04:23:00,73.9,73.3,29.89,West,270,0.0,-999.0,98,-99.99,,,0.11,Acu-Link.com,2013-08-01 08:23:00,
2013-08-01 04:38:00,73.6,73.0,29.89,NNE,22,0.0,-999.0,98,-99.99,,,0.11,Acu-Link.com,2013-08-01 08:38:00,
2013-08-01 04:53:00,73.6,73.0,29.90,East,90,0.0,-999.0,98,-99.99,,,0.11,Acu-Link.com,2013-08-01 08:53:00,
2013-08-01 05:24:00,73.4,72.8,29.89,ENE,67,0.0,-999.0,98,-99.99,,,0.11,Acu-Link.com,2013-08-01 09:24:00,
2013-08-01 05:39:00,73.2,72.6,29.90,ESE,112,0.0,-999.0,98,-99.99,,,0.11,Acu-Link.com,2013-08-01 09:39:00,
2013-08-01 05:55:00,73.2,72.6,29.89,SSW,202,0.0,-999.0,98,-99.99,,,0.11,Acu-Link.com,2013-08-01 09:55:00,
2013-08-01 06:25:00,73.2,72.6,29.90,East,90,0.0,-999.0,98,-99.99,,,0.11,Acu-Link.com,2013-08-01 10:25:00,
2013-08-01 06:41:00,73.2,72.6,29.91,NNE,22,0.0,-999.0,98,-99.99,,,0.11,Acu-Link.com,2013-08-01 10:41:00,
2013-08-01 07:11:00,73.6,73.0,29.91,WNW,292,0.0,-999.0,98,-99.99,,,0.11,Acu-Link.com,2013-08-01 11:11:00,
2013-08-01 07:26:00,74.5,73.9,29.92,East,90,0.0,-999.0,98,-99.99,,,0.11,Acu-Link.com,2013-08-01 11:26:00,
2013-08-01 07:42:00,75.4,74.8,29.92,ENE,67,0.0,-999.0,98,-99.99,,,0.11,Acu-Link.com,2013-08-01 11:42:00,
2013-08-01 07:57:00,75.7,75.1,29.93,SE,135,0.0,-999.0,98,-99.99,,,0.11,Acu-Link.com,2013-08-01 11:57:00,
2013-08-01 08:28:00,76.8,76.2,29.93,SSE,157,0.0,-999.0,98,-99.99,,,0.11,Acu-Link.com,2013-08-01 12:28:00,
2013-08-01 08:43:00,77.5,76.9,29.93,South,180,0.0,-999.0,98,-99.99,,,0.11,Acu-Link.com,2013-08-01 12:43:00,
2013-08-01 08:58:00,78.1,77.2,29.93,SSW,202,0.0,-999.0,97,-99.99,,,0.11,Acu-Link.com,2013-08-01 12:58:00,
2013-08-01 09:13:00,78.4,76.2,29.93,ESE,112,0.0,-999.0,93,-99.99,,,0.11,Acu-Link.com,2013-08-01 13:13:00,
2013-08-01 09:29:00,79.2,76.3,29.93,ENE,67,1.6,-999.0,91,-99.99,,,0.11,Acu-Link.com,2013-08-01 13:29:00,
2013-08-01 09:44:00,80.1,76.9,29.93,ESE,112,0.0,-999.0,90,-99.99,,,0.11,Acu-Link.com,2013-08-01 13:44:00,
2013-08-01 09:59:00,80.6,76.4,29.94,SSE,157,0.0,-999.0,87,-99.99,,,0.11,Acu-Link.com,2013-08-01 13:59:00,
2013-08-01 10:30:00,82.9,76.5,29.94,SSE,157,3.8,-999.0,81,-99.99,,,0.11,Acu-Link.com,2013-08-01 14:30:00,
2013-08-01 10:45:00,83.5,76.3,29.95,SE,135,3.1,-999.0,79,-99.99,,,0.11,Acu-Link.com,2013-08-01 14:45:00,
2013-08-01 11:00:00,84.2,76.2,29.95,NE,45,2.2,-999.0,77,-99.99,,,0.11,Acu-Link.com,2013-08-01 15:00:00,
2013-08-01 11:16:00,85.1,75.9,29.94,ESE,112,2.2,-999.0,74,-99.99,,,0.11,Acu-Link.com,2013-08-01 15:16:00,
2013-08-01 11:46:00,85.6,73.8,29.94,ENE,67,2.2,-999.0,68,-99.99,,,0.11,Acu-Link.com,2013-08-01 15:46:00,
2013-08-01 12:02:00,86.9,73.2,29.93,ESE,112,2.7,-999.0,64,-99.99,,,0.11,Acu-Link.com,2013-08-01 16:02:00,
2013-08-01 12:17:00,87.3,73.1,29.93,SW,225,4.7,-999.0,63,-99.99,,,0.11,Acu-Link.com,2013-08-01 16:17:00,
2013-08-01 12:32:00,87.4,73.3,29.93,South,180,5.1,-999.0,63,-99.99,,,0.11,Acu-Link.com,2013-08-01 16:32:00,
2013-08-01 12:48:00,90.1,72.8,29.92,WSW,247,3.8,-999.0,57,-99.99,,,0.11,Acu-Link.com,2013-08-01 16:48:00,
2013-08-01 13:19:00,91.0,72.0,29.91,SSE,157,6.7,-999.0,54,-99.99,,,0.11,Acu-Link.com,2013-08-01 17:19:00,
2013-08-01 13:34:00,90.1,73.8,29.91,SE,135,7.4,-999.0,59,-99.99,,,0.11,Acu-Link.com,2013-08-01 17:34:00,
2013-08-01 13:49:00,91.2,74.3,29.91,West,270,6.3,-999.0,58,-99.99,,,0.11,Acu-Link.com,2013-08-01 17:49:00,
2013-08-01 14:20:00,91.8,75.9,29.89,ESE,112,1.6,-999.0,60,-99.99,,,0.11,Acu-Link.com,2013-08-01 18:20:00,
2013-08-01 14:35:00,91.6,74.2,29.88,SE,135,5.8,-999.0,57,-99.99,,,0.11,Acu-Link.com,2013-08-01 18:35:00,
2013-08-01 15:06:00,90.0,73.2,29.88,ESE,112,3.8,-999.0,58,-99.99,,,0.11,Acu-Link.com,2013-08-01 19:06:00,
2013-08-01 15:36:00,90.0,72.6,29.88,NE,45,1.6,-999.0,57,-99.99,,,0.11,Acu-Link.com,2013-08-01 19:36:00,
2013-08-01 15:52:00,89.6,73.8,29.87,ESE,112,0.0,-999.0,60,-99.99,,,0.11,Acu-Link.com,2013-08-01 19:52:00,
2013-08-01 16:22:00,89.6,73.3,29.87,NNW,337,0.0,-999.0,59,-99.99,,,0.11,Acu-Link.com,2013-08-01 20:22:00,
2013-08-01 16:38:00,88.0,73.8,29.86,ESE,112,0.0,-999.0,63,-99.99,,,0.11,Acu-Link.com,2013-08-01 20:38:00,
2013-08-01 16:53:00,89.1,73.3,29.86,SW,225,0.0,-999.0,60,-99.99,,,0.11,Acu-Link.com,2013-08-01 20:53:00,
2013-08-01 17:08:00,84.4,73.5,29.88,NE,45,6.3,-999.0,70,-99.99,,,0.11,Acu-Link.com,2013-08-01 21:08:00,
2013-08-01 17:24:00,78.4,71.0,29.87,ESE,112,2.2,-999.0,78,-99.99,,,0.11,Acu-Link.com,2013-08-01 21:24:00,
2013-08-01 17:40:00,77.2,71.6,29.87,East,90,2.2,-999.0,83,-99.99,,,0.12,Acu-Link.com,2013-08-01 21:40:00,
2013-08-01 17:55:00,77.2,73.3,29.88,NNW,337,0.0,-999.0,88,-99.99,,,0.14,Acu-Link.com,2013-08-01 21:55:00,
2013-08-01 18:18:00,77.5,73.7,29.90,NNW,337,0.0,-999.0,88,-99.99,,,0.14,Acu-Link.com,2013-08-01 22:18:00,
2013-08-01 18:33:00,77.0,72.5,29.91,SSE,157,2.7,-999.0,86,-99.99,,,0.14,Acu-Link.com,2013-08-01 22:33:00,
2013-08-01 18:49:00,77.7,73.9,29.91,NNW,337,0.0,-999.0,88,-99.99,,,0.14,Acu-Link.com,2013-08-01 22:49:00,
2013-08-01 19:04:00,77.9,73.7,29.91,NNW,337,0.0,-999.0,87,-99.99,,,0.14,Acu-Link.com,2013-08-01 23:04:00,
2013-08-01 19:19:00,77.7,73.2,29.91,NNW,337,0.0,-999.0,86,-99.99,,,0.14,Acu-Link.com,2013-08-01 23:19:00,
2013-08-01 19:35:00,77.5,72.7,29.90,NNW,337,1.6,-999.0,85,-99.99,,,0.14,Acu-Link.com,2013-08-01 23:35:00,
2013-08-01 19:50:00,77.4,72.5,29.90,NNW,337,0.0,-999.0,85,-99.99,,,0.14,Acu-Link.com,2013-08-01 23:50:00,
2013-08-01 20:05:00,76.8,72.0,29.91,NNW,337,0.0,-999.0,85,-99.99,,,0.14,Acu-Link.com,2013-08-02 00:05:00,
2013-08-01 20:20:00,76.5,72.6,29.91,NNW,337,0.0,-999.0,88,-99.99,,,0.14,Acu-Link.com,2013-08-02 00:20:00,
2013-08-01 20:51:00,75.7,72.9,29.90,NNW,337,0.0,-999.0,91,-99.99,,,0.14,Acu-Link.com,2013-08-02 00:51:00,
2013-08-01 21:07:00,75.6,72.7,29.90,NNW,337,0.0,-999.0,91,-99.99,,,0.14,Acu-Link.com,2013-08-02 01:07:00,
2013-08-01 21:22:00,75.6,73.1,29.89,NNW,337,0.0,-999.0,92,-99.99,,,0.14,Acu-Link.com,2013-08-02 01:22:00,
2013-08-01 21:52:00,75.2,72.4,29.90,NNW,337,0.0,-999.0,91,-99.99,,,0.14,Acu-Link.com,2013-08-02 01:52:00,
2013-08-01 22:08:00,74.8,72.0,29.90,NNW,337,0.0,-999.0,91,-99.99,,,0.14,Acu-Link.com,2013-08-02 02:08:00,
2013-08-01 22:23:00,74.7,71.9,29.91,NNW,337,0.0,-999.0,91,-99.99,,,0.14,Acu-Link.com,2013-08-02 02:23:00,
2013-08-01 22:38:00,74.5,72.3,29.91,NNW,337,0.0,-999.0,93,-99.99,,,0.14,Acu-Link.com,2013-08-02 02:38:00,
2013-08-01 22:54:00,74.3,72.1,29.91,NNW,337,0.0,-999.0,93,-99.99,,,0.14,Acu-Link.com,2013-08-02 02:54:00,
2013-08-01 23:09:00,74.3,72.1,29.91,NNW,337,0.0,-999.0,93,-99.99,,,0.14,Acu-Link.com,2013-08-02 03:09:00,
2013-08-01 23:24:00,74.3,72.1,29.91,NNW,337,0.0,-999.0,93,-99.99,,,0.14,Acu-Link.com,2013-08-02 03:24:00,
2013-08-01 23:40:00,74.3,72.1,29.91,NNW,337,0.0,-999.0,93,-99.99,,,0.14,Acu-Link.com,2013-08-02 03:40:00,